Aérodrome :
LOGIN :

S'inscrire | Disclaimer

   EN    FR    IT 

 










Légende :    VFR   VFR Marginal   IFR   IFR Intensif   IFR Très Intensif
Visi : 
Plafond : 
>= 8 km
>= 3000ft
5 à 8 km
1000 à 3000 ft
1500m à 5 km
500 à 1000 ft
800 à 1500m
200 à 500 ft
< 800m
< 200 ft
Symboles :   Orages  Brouillard  Fortes neiges  Fortes précipitations  Vent > 20 kt
SIGMETs :   Divers  Orages  Givrage  Turbulence  Onde Orograph.  Cendres Volcan.






- Altitude de l'aérodrome : 1649 ft
- Code IATA : HHN


EDFH - Frankfurt-Hahn Rhineland-Palatinate

DERNIER METAR :
  • 240250Z 18004KT 150V210 0400 R21/0550N FZFG VV/// M03/M03 Q1023

METARs EXPIRÉS :
  • 240220Z 16005KT 130V190 0300 R21/0600N FZFG VV/// M03/M03 Q1023
  • 240150Z 20004KT 170V250 0400 R21/0700N FZFG VV/// M03/M03 Q1023
  • 240120Z 19005KT 140V230 0300 R21/0650N FZFG VV/// M03/M03 Q1024
  • 240050Z 17006KT 130V200 0200 R21/0500N FZFG VV/// M03/M03 Q1024
  • 240020Z 16007KT 0200 R21/0450N FZFG VV/// M03/M03 Q1024
  • 232350Z 14010KT 0100 R21/0450N FZFG VV/// M02/M03 Q1024

TAF TAF EDFH
Valide du 24 à 00h jusqu'au 25 à 00h UTC


232300Z 2400/2424 13007KT 0800 FZFG BKN002
TEMPO 2400/2410 0100 FZFG VV000
BECMG 2410/2413 22004KT 6000 NSW FEW010
BECMG 2417/2420 3500 BR
TEMPO 2420/2424 0300 FZFG VV002



MET'MAP, la Météo Aéronautique d'un coup d'oeil ! - Copyright ORBIFLY Décembre 2007 - Disclaimer

ORBIFLY MET'MAP TEAM :

Programmation & Développement : Alexandra Zaïnal
Sur une idée originale de : Baudouin d'Aumeries
Assistance à la programmation : Marc-Olivier Méhu
Soutien technique & logistique : Manuel Goepfert

Contact : metmap@orbifly.com




SOURCES & CREDITS :

   NOAA